• Join FlightAware (Why Join?)
  • Login
  • US Flag 
04:41PM EST


 

Airport Tracker/Info


-or-


 

Live Flight TrackerFlight Track Log ✈ KAP927 ✈ 26-Jun-2013 ✈ KALB - KOGS

Flight Track Log - Related Links

Times and Time Zones

All times are in EDT time to prevent confusion due to time zone crossing. See the KAP927 flight status page for this flight to view local times or setup timezone preferences in your user account.

Time Position Orientation Groundspeed Altitude Reporting Facility
EDT Latitude Longitude Course Direction KTS MPH feet Rate Location/Type
07:13PM 43.3783 -74.3683 330° Northwest 161 185 8,100  Level Boston Center
07:14PM 43.4153 -74.3981 330° Northwest 161 185 8,100  Level Boston Center
07:15PM 43.4522 -74.4278 330° Northwest 161 185 8,100  Level Boston Center
07:16PM 43.4892 -74.4578 329° Northwest 161 185 8,100  Level Boston Center
07:17PM 43.5261 -74.4903 327° Northwest 161 185 8,100  Level Boston Center
07:18PM 43.5631 -74.5203 330° Northwest 161 185 8,100  Level Boston Center
07:19PM 43.6003 -74.5475 332° Northwest 161 185 8,100  Level Boston Center
07:20PM 43.6369 -74.5803 327° Northwest 161 185 8,100  Level Boston Center
07:21PM 43.6719 -74.6103 328° Northwest 161 185 8,100  Level Boston Center
07:22PM 43.7067 -74.6403 328° Northwest 156 180 8,100  Level Boston Center
07:23PM 43.7439 -74.6672 332° Northwest 156 180 8,100  Level Boston Center
07:24PM 43.7786 -74.7003 326° Northwest 151 174 8,100  Level Boston Center
07:25PM 43.8156 -74.7306 329° Northwest 151 174 8,100  Level Boston Center
07:26PM 43.8525 -74.7606 330° Northwest 151 174 8,100  Level Boston Center
07:27PM 43.8894 -74.7881 332° Northwest 151 174 8,100  Level Boston Center
07:28PM 43.9261 -74.8211 327° Northwest 151 174 8,100  Level Boston Center
07:29PM 43.9608 -74.8542 326° Northwest 151 174 8,100  Level Boston Center
07:30PM 44.0000 -74.8847 331° Northwest 151 174 8,100  Level Boston Center
07:31PM 44.0367 -74.9150 329° Northwest 151 174 8,100  Level Boston Center
07:32PM 44.0736 -74.9483 327° Northwest 151 174 8,100  Level Boston Center
07:33PM 44.1103 -74.9789 329° Northwest 151 174 8,100 -240 Level Boston Center
07:34PM 44.1472 -75.0122 327° Northwest 151 174 7,700 -600 Descending Boston Center
07:35PM 44.1900 -75.0461 330° Northwest 165 190 6,900 -720 Descending Boston Center
07:36PM 44.2353 -75.0769 334° Northwest 171 197 6,300 -600 Descending Boston Center
07:37PM 44.2781 -75.1167 326° Northwest 177 204 5,700 -600 Descending Boston Center
07:38PM 44.3211 -75.1475 333° Northwest 177 204 5,100 -720 Descending Boston Center
07:39PM 44.3683 -75.1758 337° Northwest 177 204 4,300 -720 Descending Boston Center
07:40PM 44.4114 -75.2069 333° Northwest 177 204 3,700 -600 Descending Boston Center
07:41PM 44.4567 -75.2353 336° Northwest 177 204 3,100 -600 Descending Boston Center
07:42PM 44.4975 -75.2692 329° Northwest 172 198 2,600 -540 Descending Boston Center